sensor_id;sensor_type;location;lat;lon;timestamp;temperature;humidity
29849;DHT22;16728;50.832;5.590;2024-01-07T00:00:22;4.20;99.90
29849;DHT22;16728;50.832;5.590;2024-01-07T00:03:24;4.30;99.90
29849;DHT22;16728;50.832;5.590;2024-01-07T00:06:26;4.30;99.90
29849;DHT22;16728;50.832;5.590;2024-01-07T00:09:28;4.20;99.90
29849;DHT22;16728;50.832;5.590;2024-01-07T00:12:30;4.30;99.90
29849;DHT22;16728;50.832;5.590;2024-01-07T00:15:32;4.20;99.90
29849;DHT22;16728;50.832;5.590;2024-01-07T00:18:35;4.10;99.90
29849;DHT22;16728;50.832;5.590;2024-01-07T00:21:37;4.10;99.90
29849;DHT22;16728;50.832;5.590;2024-01-07T00:24:39;4.10;99.90
29849;DHT22;16728;50.832;5.590;2024-01-07T00:27:41;4.10;99.90
29849;DHT22;16728;50.832;5.590;2024-01-07T00:30:42;4.00;99.90
29849;DHT22;16728;50.832;5.590;2024-01-07T00:33:45;4.00;99.90
29849;DHT22;16728;50.832;5.590;2024-01-07T00:36:47;4.00;99.90
29849;DHT22;16728;50.832;5.590;2024-01-07T00:39:48;4.00;99.90
29849;DHT22;16728;50.832;5.590;2024-01-07T00:42:50;4.10;99.90
29849;DHT22;16728;50.832;5.590;2024-01-07T00:45:55;4.00;99.90
29849;DHT22;16728;50.832;5.590;2024-01-07T00:48:57;4.00;99.90
29849;DHT22;16728;50.832;5.590;2024-01-07T00:52:00;4.00;99.90
29849;DHT22;16728;50.832;5.590;2024-01-07T00:55:02;4.00;99.90
29849;DHT22;16728;50.832;5.590;2024-01-07T00:58:05;3.90;99.90
29849;DHT22;16728;50.832;5.590;2024-01-07T01:01:07;3.90;99.90
29849;DHT22;16728;50.832;5.590;2024-01-07T01:04:09;3.90;99.90
29849;DHT22;16728;50.832;5.590;2024-01-07T01:07:11;3.80;99.90
29849;DHT22;16728;50.832;5.590;2024-01-07T01:10:13;3.90;99.90
29849;DHT22;16728;50.832;5.590;2024-01-07T01:13:18;3.90;99.90
29849;DHT22;16728;50.832;5.590;2024-01-07T01:16:20;3.90;99.90
29849;DHT22;16728;50.832;5.590;2024-01-07T01:19:26;3.90;99.90
29849;DHT22;16728;50.832;5.590;2024-01-07T01:22:28;3.90;99.90
29849;DHT22;16728;50.832;5.590;2024-01-07T01:25:29;4.00;99.90
29849;DHT22;16728;50.832;5.590;2024-01-07T01:28:31;3.90;99.90
29849;DHT22;16728;50.832;5.590;2024-01-07T01:31:33;4.00;99.90
29849;DHT22;16728;50.832;5.590;2024-01-07T01:34:36;3.90;99.90
29849;DHT22;16728;50.832;5.590;2024-01-07T01:37:38;3.90;99.90
29849;DHT22;16728;50.832;5.590;2024-01-07T01:40:40;4.00;99.90
29849;DHT22;16728;50.832;5.590;2024-01-07T01:43:42;3.80;99.90
29849;DHT22;16728;50.832;5.590;2024-01-07T01:46:45;3.90;99.90
29849;DHT22;16728;50.832;5.590;2024-01-07T01:49:48;3.80;99.90
29849;DHT22;16728;50.832;5.590;2024-01-07T01:52:51;3.90;99.90
29849;DHT22;16728;50.832;5.590;2024-01-07T01:55:56;3.80;99.90
29849;DHT22;16728;50.832;5.590;2024-01-07T01:58:59;3.80;99.90
29849;DHT22;16728;50.832;5.590;2024-01-07T02:02:01;3.90;99.90
29849;DHT22;16728;50.832;5.590;2024-01-07T02:05:04;3.80;99.90
29849;DHT22;16728;50.832;5.590;2024-01-07T02:08:07;3.80;99.90
29849;DHT22;16728;50.832;5.590;2024-01-07T02:11:35;3.80;99.90
29849;DHT22;16728;50.832;5.590;2024-01-07T02:14:38;3.70;99.90
29849;DHT22;16728;50.832;5.590;2024-01-07T02:17:40;3.80;99.90
29849;DHT22;16728;50.832;5.590;2024-01-07T02:20:42;3.80;99.90
29849;DHT22;16728;50.832;5.590;2024-01-07T02:23:44;3.80;99.90
29849;DHT22;16728;50.832;5.590;2024-01-07T02:26:46;3.80;99.90
29849;DHT22;16728;50.832;5.590;2024-01-07T02:29:48;3.70;99.90
29849;DHT22;16728;50.832;5.590;2024-01-07T02:32:50;3.60;99.90
29849;DHT22;16728;50.832;5.590;2024-01-07T02:35:52;3.60;99.90
29849;DHT22;16728;50.832;5.590;2024-01-07T02:38:54;3.60;99.90
29849;DHT22;16728;50.832;5.590;2024-01-07T02:41:56;3.60;99.90
29849;DHT22;16728;50.832;5.590;2024-01-07T02:44:57;3.60;99.90
29849;DHT22;16728;50.832;5.590;2024-01-07T02:47:59;3.70;99.90
29849;DHT22;16728;50.832;5.590;2024-01-07T02:51:02;3.70;99.90
29849;DHT22;16728;50.832;5.590;2024-01-07T02:54:05;3.60;99.90
29849;DHT22;16728;50.832;5.590;2024-01-07T02:57:07;3.60;99.90
29849;DHT22;16728;50.832;5.590;2024-01-07T03:00:09;3.70;99.90
29849;DHT22;16728;50.832;5.590;2024-01-07T03:03:11;3.60;99.90
29849;DHT22;16728;50.832;5.590;2024-01-07T03:06:13;3.60;99.90
29849;DHT22;16728;50.832;5.590;2024-01-07T03:09:14;3.60;99.90
29849;DHT22;16728;50.832;5.590;2024-01-07T03:12:16;3.60;99.90
29849;DHT22;16728;50.832;5.590;2024-01-07T03:15:18;3.60;99.90
29849;DHT22;16728;50.832;5.590;2024-01-07T03:18:21;3.60;99.90
29849;DHT22;16728;50.832;5.590;2024-01-07T03:21:23;3.60;99.90
29849;DHT22;16728;50.832;5.590;2024-01-07T03:24:25;3.70;99.90
29849;DHT22;16728;50.832;5.590;2024-01-07T03:27:27;3.70;99.90
29849;DHT22;16728;50.832;5.590;2024-01-07T03:30:29;3.70;99.90
29849;DHT22;16728;50.832;5.590;2024-01-07T03:33:31;3.70;99.90
29849;DHT22;16728;50.832;5.590;2024-01-07T03:36:33;3.60;99.90
29849;DHT22;16728;50.832;5.590;2024-01-07T03:39:35;3.60;99.90
29849;DHT22;16728;50.832;5.590;2024-01-07T03:42:37;3.60;99.90
29849;DHT22;16728;50.832;5.590;2024-01-07T03:45:39;3.60;99.90
29849;DHT22;16728;50.832;5.590;2024-01-07T03:48:41;3.60;99.90
29849;DHT22;16728;50.832;5.590;2024-01-07T03:51:44;3.50;99.90
29849;DHT22;16728;50.832;5.590;2024-01-07T03:54:46;3.60;99.90
29849;DHT22;16728;50.832;5.590;2024-01-07T03:57:47;3.60;99.90
29849;DHT22;16728;50.832;5.590;2024-01-07T04:00:49;3.50;99.90
29849;DHT22;16728;50.832;5.590;2024-01-07T04:03:51;3.50;99.90
29849;DHT22;16728;50.832;5.590;2024-01-07T04:06:53;3.50;99.90
29849;DHT22;16728;50.832;5.590;2024-01-07T04:09:55;3.60;99.90
29849;DHT22;16728;50.832;5.590;2024-01-07T04:12:57;3.50;99.90
29849;DHT22;16728;50.832;5.590;2024-01-07T04:15:59;3.50;99.90
29849;DHT22;16728;50.832;5.590;2024-01-07T04:19:02;3.50;99.90
29849;DHT22;16728;50.832;5.590;2024-01-07T04:22:04;3.50;99.90
29849;DHT22;16728;50.832;5.590;2024-01-07T04:25:06;3.50;99.90
29849;DHT22;16728;50.832;5.590;2024-01-07T04:28:10;3.50;99.90
29849;DHT22;16728;50.832;5.590;2024-01-07T04:31:12;3.50;99.90
29849;DHT22;16728;50.832;5.590;2024-01-07T04:34:14;3.50;99.90
29849;DHT22;16728;50.832;5.590;2024-01-07T04:37:16;3.50;99.90
29849;DHT22;16728;50.832;5.590;2024-01-07T04:40:18;3.50;99.90
29849;DHT22;16728;50.832;5.590;2024-01-07T04:43:20;3.50;99.90
29849;DHT22;16728;50.832;5.590;2024-01-07T04:46:22;3.50;99.90
29849;DHT22;16728;50.832;5.590;2024-01-07T04:49:24;3.60;99.90
29849;DHT22;16728;50.832;5.590;2024-01-07T04:52:26;3.60;99.90
29849;DHT22;16728;50.832;5.590;2024-01-07T04:55:29;3.60;99.90
29849;DHT22;16728;50.832;5.590;2024-01-07T04:58:31;3.60;99.90
29849;DHT22;16728;50.832;5.590;2024-01-07T05:01:33;3.60;99.90
29849;DHT22;16728;50.832;5.590;2024-01-07T05:04:36;3.50;99.90
29849;DHT22;16728;50.832;5.590;2024-01-07T05:07:38;3.50;99.90
29849;DHT22;16728;50.832;5.590;2024-01-07T05:10:40;3.60;99.90
29849;DHT22;16728;50.832;5.590;2024-01-07T05:13:42;3.60;99.90
29849;DHT22;16728;50.832;5.590;2024-01-07T05:16:44;3.60;99.90
29849;DHT22;16728;50.832;5.590;2024-01-07T05:19:46;3.50;99.90
29849;DHT22;16728;50.832;5.590;2024-01-07T05:22:48;3.50;99.90
29849;DHT22;16728;50.832;5.590;2024-01-07T05:25:50;3.50;99.90
29849;DHT22;16728;50.832;5.590;2024-01-07T05:28:51;3.50;99.90
29849;DHT22;16728;50.832;5.590;2024-01-07T05:31:53;3.50;99.90
29849;DHT22;16728;50.832;5.590;2024-01-07T05:34:55;3.50;99.90
29849;DHT22;16728;50.832;5.590;2024-01-07T05:37:57;3.40;99.90
29849;DHT22;16728;50.832;5.590;2024-01-07T05:40:59;3.40;99.90
29849;DHT22;16728;50.832;5.590;2024-01-07T05:44:01;3.40;99.90
29849;DHT22;16728;50.832;5.590;2024-01-07T05:47:03;3.40;99.90
29849;DHT22;16728;50.832;5.590;2024-01-07T05:50:06;3.40;99.90
29849;DHT22;16728;50.832;5.590;2024-01-07T05:53:08;3.40;99.90
29849;DHT22;16728;50.832;5.590;2024-01-07T05:56:10;3.40;99.90
29849;DHT22;16728;50.832;5.590;2024-01-07T05:59:16;3.30;99.90
29849;DHT22;16728;50.832;5.590;2024-01-07T06:02:18;3.30;99.90
29849;DHT22;16728;50.832;5.590;2024-01-07T06:05:20;3.30;99.90
29849;DHT22;16728;50.832;5.590;2024-01-07T06:08:22;3.40;99.90
29849;DHT22;16728;50.832;5.590;2024-01-07T06:11:24;3.40;99.90
29849;DHT22;16728;50.832;5.590;2024-01-07T06:14:26;3.40;99.90
29849;DHT22;16728;50.832;5.590;2024-01-07T06:17:28;3.40;99.90
29849;DHT22;16728;50.832;5.590;2024-01-07T06:20:29;3.40;99.90
29849;DHT22;16728;50.832;5.590;2024-01-07T06:23:34;3.40;99.90
29849;DHT22;16728;50.832;5.590;2024-01-07T06:26:37;3.40;99.90
29849;DHT22;16728;50.832;5.590;2024-01-07T06:29:39;3.30;99.90
29849;DHT22;16728;50.832;5.590;2024-01-07T06:32:41;3.30;99.90
29849;DHT22;16728;50.832;5.590;2024-01-07T06:35:43;3.30;99.90
29849;DHT22;16728;50.832;5.590;2024-01-07T06:38:45;3.30;99.90
29849;DHT22;16728;50.832;5.590;2024-01-07T06:41:47;3.30;99.90
29849;DHT22;16728;50.832;5.590;2024-01-07T06:44:49;3.30;99.90
29849;DHT22;16728;50.832;5.590;2024-01-07T06:47:51;3.30;99.90
29849;DHT22;16728;50.832;5.590;2024-01-07T06:50:52;3.40;99.90
29849;DHT22;16728;50.832;5.590;2024-01-07T06:53:54;3.40;99.90
29849;DHT22;16728;50.832;5.590;2024-01-07T06:56:57;3.30;99.90
29849;DHT22;16728;50.832;5.590;2024-01-07T06:59:59;3.30;99.90
29849;DHT22;16728;50.832;5.590;2024-01-07T07:03:01;3.40;99.90
29849;DHT22;16728;50.832;5.590;2024-01-07T07:06:02;3.40;99.90
29849;DHT22;16728;50.832;5.590;2024-01-07T07:09:04;3.30;99.90
29849;DHT22;16728;50.832;5.590;2024-01-07T07:12:06;3.30;99.90
29849;DHT22;16728;50.832;5.590;2024-01-07T07:15:09;3.30;99.90
29849;DHT22;16728;50.832;5.590;2024-01-07T07:18:11;3.30;99.90
29849;DHT22;16728;50.832;5.590;2024-01-07T07:21:13;3.30;99.90
29849;DHT22;16728;50.832;5.590;2024-01-07T07:24:15;3.30;99.90
29849;DHT22;16728;50.832;5.590;2024-01-07T07:27:17;3.30;99.90
29849;DHT22;16728;50.832;5.590;2024-01-07T07:30:19;3.30;99.90
29849;DHT22;16728;50.832;5.590;2024-01-07T07:33:21;3.30;99.90
29849;DHT22;16728;50.832;5.590;2024-01-07T07:36:23;3.30;99.90
29849;DHT22;16728;50.832;5.590;2024-01-07T07:39:25;3.30;99.90
29849;DHT22;16728;50.832;5.590;2024-01-07T07:42:28;3.30;99.90
29849;DHT22;16728;50.832;5.590;2024-01-07T07:45:32;3.30;99.90
29849;DHT22;16728;50.832;5.590;2024-01-07T07:48:34;3.30;99.90
29849;DHT22;16728;50.832;5.590;2024-01-07T07:51:35;3.20;99.90
29849;DHT22;16728;50.832;5.590;2024-01-07T07:54:38;3.20;99.90
29849;DHT22;16728;50.832;5.590;2024-01-07T07:57:40;3.20;99.90
29849;DHT22;16728;50.832;5.590;2024-01-07T08:00:42;3.20;99.90
29849;DHT22;16728;50.832;5.590;2024-01-07T08:03:44;3.20;99.90
29849;DHT22;16728;50.832;5.590;2024-01-07T08:06:46;3.20;99.90
29849;DHT22;16728;50.832;5.590;2024-01-07T08:09:48;3.30;99.90
29849;DHT22;16728;50.832;5.590;2024-01-07T08:12:50;3.20;99.90
29849;DHT22;16728;50.832;5.590;2024-01-07T08:15:52;3.30;99.90
29849;DHT22;16728;50.832;5.590;2024-01-07T08:18:54;3.20;99.90
29849;DHT22;16728;50.832;5.590;2024-01-07T08:21:59;3.20;99.90
29849;DHT22;16728;50.832;5.590;2024-01-07T08:25:01;3.30;99.90
29849;DHT22;16728;50.832;5.590;2024-01-07T08:28:03;3.20;99.90
29849;DHT22;16728;50.832;5.590;2024-01-07T08:31:05;3.20;99.90
29849;DHT22;16728;50.832;5.590;2024-01-07T08:34:07;3.20;99.90
29849;DHT22;16728;50.832;5.590;2024-01-07T08:37:09;3.20;99.90
29849;DHT22;16728;50.832;5.590;2024-01-07T08:40:12;3.20;99.90
29849;DHT22;16728;50.832;5.590;2024-01-07T08:43:15;3.20;99.90
29849;DHT22;16728;50.832;5.590;2024-01-07T08:46:20;3.20;99.90
29849;DHT22;16728;50.832;5.590;2024-01-07T08:49:22;3.20;99.90
29849;DHT22;16728;50.832;5.590;2024-01-07T08:52:25;3.20;99.90
29849;DHT22;16728;50.832;5.590;2024-01-07T08:55:28;3.10;99.90
29849;DHT22;16728;50.832;5.590;2024-01-07T08:58:30;3.10;99.90
29849;DHT22;16728;50.832;5.590;2024-01-07T09:01:32;3.10;99.90
29849;DHT22;16728;50.832;5.590;2024-01-07T09:04:33;3.10;99.90
29849;DHT22;16728;50.832;5.590;2024-01-07T09:07:36;3.10;99.90
29849;DHT22;16728;50.832;5.590;2024-01-07T09:10:38;3.00;99.90
29849;DHT22;16728;50.832;5.590;2024-01-07T09:13:39;3.00;99.90
29849;DHT22;16728;50.832;5.590;2024-01-07T09:16:50;3.00;99.90
29849;DHT22;16728;50.832;5.590;2024-01-07T09:20:07;3.00;99.90
29849;DHT22;16728;50.832;5.590;2024-01-07T09:23:26;3.00;99.90
29849;DHT22;16728;50.832;5.590;2024-01-07T09:26:28;3.10;99.90
29849;DHT22;16728;50.832;5.590;2024-01-07T09:29:30;3.10;99.90
29849;DHT22;16728;50.832;5.590;2024-01-07T09:32:32;3.00;99.90
29849;DHT22;16728;50.832;5.590;2024-01-07T09:35:38;3.00;99.90
29849;DHT22;16728;50.832;5.590;2024-01-07T09:38:40;2.90;99.90
29849;DHT22;16728;50.832;5.590;2024-01-07T09:41:42;2.90;99.90
29849;DHT22;16728;50.832;5.590;2024-01-07T09:44:45;2.90;99.90
29849;DHT22;16728;50.832;5.590;2024-01-07T09:47:47;2.90;99.90
29849;DHT22;16728;50.832;5.590;2024-01-07T09:50:49;2.90;99.90
29849;DHT22;16728;50.832;5.590;2024-01-07T09:53:57;2.80;99.90
29849;DHT22;16728;50.832;5.590;2024-01-07T09:57:01;2.80;99.90
29849;DHT22;16728;50.832;5.590;2024-01-07T10:00:04;2.90;99.90
29849;DHT22;16728;50.832;5.590;2024-01-07T10:03:06;2.90;99.90
29849;DHT22;16728;50.832;5.590;2024-01-07T10:06:08;2.90;99.90
29849;DHT22;16728;50.832;5.590;2024-01-07T10:09:12;2.90;99.90
29849;DHT22;16728;50.832;5.590;2024-01-07T10:12:14;2.70;99.90
29849;DHT22;16728;50.832;5.590;2024-01-07T10:15:17;2.70;99.90
29849;DHT22;16728;50.832;5.590;2024-01-07T10:18:19;2.80;99.90
29849;DHT22;16728;50.832;5.590;2024-01-07T10:21:21;2.70;99.90
29849;DHT22;16728;50.832;5.590;2024-01-07T10:24:23;2.70;99.90
29849;DHT22;16728;50.832;5.590;2024-01-07T10:27:25;2.70;99.90
29849;DHT22;16728;50.832;5.590;2024-01-07T10:30:28;2.70;99.90
29849;DHT22;16728;50.832;5.590;2024-01-07T10:33:31;2.80;99.90
29849;DHT22;16728;50.832;5.590;2024-01-07T10:36:36;2.80;99.90
29849;DHT22;16728;50.832;5.590;2024-01-07T10:39:39;2.80;99.90
29849;DHT22;16728;50.832;5.590;2024-01-07T10:42:43;2.70;99.90
29849;DHT22;16728;50.832;5.590;2024-01-07T10:45:48;2.60;99.90
29849;DHT22;16728;50.832;5.590;2024-01-07T10:49:07;2.70;99.90
29849;DHT22;16728;50.832;5.590;2024-01-07T10:52:21;2.60;99.90
29849;DHT22;16728;50.832;5.590;2024-01-07T10:55:26;2.70;99.90
29849;DHT22;16728;50.832;5.590;2024-01-07T10:58:32;2.70;99.90
29849;DHT22;16728;50.832;5.590;2024-01-07T11:01:37;2.70;99.90
29849;DHT22;16728;50.832;5.590;2024-01-07T11:05:05;2.70;99.90
29849;DHT22;16728;50.832;5.590;2024-01-07T11:08:37;2.80;99.90
29849;DHT22;16728;50.832;5.590;2024-01-07T11:11:41;2.80;99.90
29849;DHT22;16728;50.832;5.590;2024-01-07T11:14:44;2.70;99.90
29849;DHT22;16728;50.832;5.590;2024-01-07T11:17:54;2.70;99.90
29849;DHT22;16728;50.832;5.590;2024-01-07T11:20:59;2.70;99.90
29849;DHT22;16728;50.832;5.590;2024-01-07T11:24:05;2.60;99.90
29849;DHT22;16728;50.832;5.590;2024-01-07T11:27:10;2.70;99.90
29849;DHT22;16728;50.832;5.590;2024-01-07T11:30:19;2.70;99.90
29849;DHT22;16728;50.832;5.590;2024-01-07T11:33:21;2.70;99.90
29849;DHT22;16728;50.832;5.590;2024-01-07T11:36:23;2.80;99.90
29849;DHT22;16728;50.832;5.590;2024-01-07T11:39:27;2.70;99.90
29849;DHT22;16728;50.832;5.590;2024-01-07T11:42:29;2.70;99.90
29849;DHT22;16728;50.832;5.590;2024-01-07T11:45:31;2.60;99.90
29849;DHT22;16728;50.832;5.590;2024-01-07T11:48:33;2.60;99.90
29849;DHT22;16728;50.832;5.590;2024-01-07T11:51:35;2.60;99.90
29849;DHT22;16728;50.832;5.590;2024-01-07T11:54:40;2.60;99.90
29849;DHT22;16728;50.832;5.590;2024-01-07T11:57:43;2.60;99.90
29849;DHT22;16728;50.832;5.590;2024-01-07T12:00:45;2.60;99.90
29849;DHT22;16728;50.832;5.590;2024-01-07T12:03:48;2.60;99.90
29849;DHT22;16728;50.832;5.590;2024-01-07T12:06:50;2.60;99.90
29849;DHT22;16728;50.832;5.590;2024-01-07T12:10:00;2.70;99.90
29849;DHT22;16728;50.832;5.590;2024-01-07T12:13:03;2.60;99.90
29849;DHT22;16728;50.832;5.590;2024-01-07T12:16:06;2.70;99.90
29849;DHT22;16728;50.832;5.590;2024-01-07T12:19:09;2.60;99.90
29849;DHT22;16728;50.832;5.590;2024-01-07T12:22:12;2.60;99.90
29849;DHT22;16728;50.832;5.590;2024-01-07T12:25:21;2.50;99.90
29849;DHT22;16728;50.832;5.590;2024-01-07T12:28:24;2.50;99.90
29849;DHT22;16728;50.832;5.590;2024-01-07T12:31:27;2.50;99.90
29849;DHT22;16728;50.832;5.590;2024-01-07T12:34:30;2.50;99.90
29849;DHT22;16728;50.832;5.590;2024-01-07T12:37:32;2.50;99.90
29849;DHT22;16728;50.832;5.590;2024-01-07T12:43:54;2.50;99.90
29849;DHT22;16728;50.832;5.590;2024-01-07T12:46:56;2.50;99.90
29849;DHT22;16728;50.832;5.590;2024-01-07T12:49:58;2.50;99.90
29849;DHT22;16728;50.832;5.590;2024-01-07T12:53:00;2.60;99.90
29849;DHT22;16728;50.832;5.590;2024-01-07T12:56:02;2.60;99.90
29849;DHT22;16728;50.832;5.590;2024-01-07T12:59:05;2.60;99.90
29849;DHT22;16728;50.832;5.590;2024-01-07T13:02:07;2.60;99.90
29849;DHT22;16728;50.832;5.590;2024-01-07T13:05:11;2.60;99.90
29849;DHT22;16728;50.832;5.590;2024-01-07T13:08:13;2.60;99.90
29849;DHT22;16728;50.832;5.590;2024-01-07T13:11:15;2.50;99.90
29849;DHT22;16728;50.832;5.590;2024-01-07T13:14:18;2.60;99.90
29849;DHT22;16728;50.832;5.590;2024-01-07T13:17:20;2.60;99.90
29849;DHT22;16728;50.832;5.590;2024-01-07T13:20:22;2.60;99.90
29849;DHT22;16728;50.832;5.590;2024-01-07T13:23:24;2.60;99.90
29849;DHT22;16728;50.832;5.590;2024-01-07T13:26:26;2.60;99.90
29849;DHT22;16728;50.832;5.590;2024-01-07T13:29:28;2.60;99.90
29849;DHT22;16728;50.832;5.590;2024-01-07T13:32:30;2.60;99.90
29849;DHT22;16728;50.832;5.590;2024-01-07T13:35:32;2.60;99.90
29849;DHT22;16728;50.832;5.590;2024-01-07T13:38:34;2.50;99.90
29849;DHT22;16728;50.832;5.590;2024-01-07T13:41:36;2.50;99.90
29849;DHT22;16728;50.832;5.590;2024-01-07T13:44:38;2.50;99.90
29849;DHT22;16728;50.832;5.590;2024-01-07T13:47:47;2.50;99.90
29849;DHT22;16728;50.832;5.590;2024-01-07T13:50:50;2.50;99.90
29849;DHT22;16728;50.832;5.590;2024-01-07T13:53:52;2.50;99.90
29849;DHT22;16728;50.832;5.590;2024-01-07T13:56:54;2.50;99.90
29849;DHT22;16728;50.832;5.590;2024-01-07T13:59:56;2.50;99.90
29849;DHT22;16728;50.832;5.590;2024-01-07T14:02:58;2.40;99.90
29849;DHT22;16728;50.832;5.590;2024-01-07T14:06:01;2.50;99.90
29849;DHT22;16728;50.832;5.590;2024-01-07T14:09:12;2.50;99.90
29849;DHT22;16728;50.832;5.590;2024-01-07T14:12:14;2.50;99.90
29849;DHT22;16728;50.832;5.590;2024-01-07T14:18:28;2.50;99.90
29849;DHT22;16728;50.832;5.590;2024-01-07T14:21:37;2.40;99.90
29849;DHT22;16728;50.832;5.590;2024-01-07T14:24:45;2.40;99.90
29849;DHT22;16728;50.832;5.590;2024-01-07T14:27:48;2.40;99.90
29849;DHT22;16728;50.832;5.590;2024-01-07T14:30:50;2.40;99.90
29849;DHT22;16728;50.832;5.590;2024-01-07T14:33:52;2.40;99.90
29849;DHT22;16728;50.832;5.590;2024-01-07T14:36:53;2.40;99.90
29849;DHT22;16728;50.832;5.590;2024-01-07T14:39:55;2.30;99.90
29849;DHT22;16728;50.832;5.590;2024-01-07T14:42:57;2.30;99.90
29849;DHT22;16728;50.832;5.590;2024-01-07T14:46:00;2.40;99.90
29849;DHT22;16728;50.832;5.590;2024-01-07T14:49:02;2.30;99.90
29849;DHT22;16728;50.832;5.590;2024-01-07T14:52:05;2.20;99.90
29849;DHT22;16728;50.832;5.590;2024-01-07T14:55:07;2.20;99.90
29849;DHT22;16728;50.832;5.590;2024-01-07T14:58:09;2.10;99.90
29849;DHT22;16728;50.832;5.590;2024-01-07T15:01:19;2.10;99.90
29849;DHT22;16728;50.832;5.590;2024-01-07T15:04:21;2.00;99.90
29849;DHT22;16728;50.832;5.590;2024-01-07T15:07:25;2.00;99.90
29849;DHT22;16728;50.832;5.590;2024-01-07T15:10:27;2.00;99.90
29849;DHT22;16728;50.832;5.590;2024-01-07T15:13:29;2.10;99.90
29849;DHT22;16728;50.832;5.590;2024-01-07T15:16:34;2.00;99.90
29849;DHT22;16728;50.832;5.590;2024-01-07T15:19:40;2.00;99.90
29849;DHT22;16728;50.832;5.590;2024-01-07T15:22:42;2.00;99.90
29849;DHT22;16728;50.832;5.590;2024-01-07T15:25:44;2.00;99.90
29849;DHT22;16728;50.832;5.590;2024-01-07T15:28:46;2.00;99.90
29849;DHT22;16728;50.832;5.590;2024-01-07T15:31:52;2.00;99.90
29849;DHT22;16728;50.832;5.590;2024-01-07T15:34:54;1.90;99.90
29849;DHT22;16728;50.832;5.590;2024-01-07T15:37:56;2.00;99.90
29849;DHT22;16728;50.832;5.590;2024-01-07T15:40:59;1.90;99.90
29849;DHT22;16728;50.832;5.590;2024-01-07T15:44:07;1.90;99.90
29849;DHT22;16728;50.832;5.590;2024-01-07T15:47:10;1.90;99.90
29849;DHT22;16728;50.832;5.590;2024-01-07T15:50:15;1.90;99.90
29849;DHT22;16728;50.832;5.590;2024-01-07T15:53:22;1.80;99.90
29849;DHT22;16728;50.832;5.590;2024-01-07T15:56:27;1.90;99.90
29849;DHT22;16728;50.832;5.590;2024-01-07T15:59:29;1.80;99.90
29849;DHT22;16728;50.832;5.590;2024-01-07T16:02:31;1.70;99.90
29849;DHT22;16728;50.832;5.590;2024-01-07T16:05:33;1.70;99.90
29849;DHT22;16728;50.832;5.590;2024-01-07T16:08:36;1.60;99.90
29849;DHT22;16728;50.832;5.590;2024-01-07T16:11:39;1.70;99.90
29849;DHT22;16728;50.832;5.590;2024-01-07T16:14:41;1.70;99.90
29849;DHT22;16728;50.832;5.590;2024-01-07T16:17:45;1.70;99.90
29849;DHT22;16728;50.832;5.590;2024-01-07T16:20:47;1.70;99.90
29849;DHT22;16728;50.832;5.590;2024-01-07T16:23:49;1.60;99.90
29849;DHT22;16728;50.832;5.590;2024-01-07T16:26:52;1.60;99.90
29849;DHT22;16728;50.832;5.590;2024-01-07T16:29:54;1.60;99.90
29849;DHT22;16728;50.832;5.590;2024-01-07T16:32:56;1.50;99.90
29849;DHT22;16728;50.832;5.590;2024-01-07T16:35:59;1.50;99.90
29849;DHT22;16728;50.832;5.590;2024-01-07T16:39:01;1.40;99.90
29849;DHT22;16728;50.832;5.590;2024-01-07T16:42:05;1.30;99.90
29849;DHT22;16728;50.832;5.590;2024-01-07T16:45:07;1.30;99.90
29849;DHT22;16728;50.832;5.590;2024-01-07T16:48:18;1.30;99.90
29849;DHT22;16728;50.832;5.590;2024-01-07T16:51:39;1.30;99.90
29849;DHT22;16728;50.832;5.590;2024-01-07T16:54:56;1.40;99.90
29849;DHT22;16728;50.832;5.590;2024-01-07T16:58:13;1.40;99.90
29849;DHT22;16728;50.832;5.590;2024-01-07T17:01:16;1.40;99.90
29849;DHT22;16728;50.832;5.590;2024-01-07T17:04:21;1.40;99.90
29849;DHT22;16728;50.832;5.590;2024-01-07T17:07:23;1.40;99.90
29849;DHT22;16728;50.832;5.590;2024-01-07T17:13:49;1.40;99.90
29849;DHT22;16728;50.832;5.590;2024-01-07T17:17:05;1.40;99.90
29849;DHT22;16728;50.832;5.590;2024-01-07T17:20:07;1.40;99.90
29849;DHT22;16728;50.832;5.590;2024-01-07T17:23:17;1.40;99.90
29849;DHT22;16728;50.832;5.590;2024-01-07T17:26:25;1.40;99.90
29849;DHT22;16728;50.832;5.590;2024-01-07T17:29:27;1.50;99.90
29849;DHT22;16728;50.832;5.590;2024-01-07T17:32:29;1.50;99.90
29849;DHT22;16728;50.832;5.590;2024-01-07T17:35:31;1.50;99.90
29849;DHT22;16728;50.832;5.590;2024-01-07T17:38:33;1.50;99.90
29849;DHT22;16728;50.832;5.590;2024-01-07T17:41:36;1.50;99.90
29849;DHT22;16728;50.832;5.590;2024-01-07T17:44:38;1.50;99.90
29849;DHT22;16728;50.832;5.590;2024-01-07T17:47:44;1.50;99.90
29849;DHT22;16728;50.832;5.590;2024-01-07T17:50:46;1.50;99.90
29849;DHT22;16728;50.832;5.590;2024-01-07T17:53:50;1.50;99.90
29849;DHT22;16728;50.832;5.590;2024-01-07T17:56:51;1.50;99.90
29849;DHT22;16728;50.832;5.590;2024-01-07T17:59:53;1.50;99.90
29849;DHT22;16728;50.832;5.590;2024-01-07T18:02:56;1.50;99.90
29849;DHT22;16728;50.832;5.590;2024-01-07T18:06:00;1.50;99.90
29849;DHT22;16728;50.832;5.590;2024-01-07T18:09:03;1.50;99.90
29849;DHT22;16728;50.832;5.590;2024-01-07T18:12:21;1.50;99.90
29849;DHT22;16728;50.832;5.590;2024-01-07T18:15:25;1.50;99.90
29849;DHT22;16728;50.832;5.590;2024-01-07T18:18:30;1.40;99.90
29849;DHT22;16728;50.832;5.590;2024-01-07T18:21:32;1.50;99.90
29849;DHT22;16728;50.832;5.590;2024-01-07T18:24:34;1.50;99.90
29849;DHT22;16728;50.832;5.590;2024-01-07T18:27:38;1.50;99.90
29849;DHT22;16728;50.832;5.590;2024-01-07T18:30:40;1.50;99.90
29849;DHT22;16728;50.832;5.590;2024-01-07T18:33:49;1.50;99.90
29849;DHT22;16728;50.832;5.590;2024-01-07T18:37:09;1.50;99.90
29849;DHT22;16728;50.832;5.590;2024-01-07T18:40:30;1.50;99.90
29849;DHT22;16728;50.832;5.590;2024-01-07T18:43:32;1.50;99.90
29849;DHT22;16728;50.832;5.590;2024-01-07T18:46:37;1.40;99.90
29849;DHT22;16728;50.832;5.590;2024-01-07T18:49:47;1.40;99.90
29849;DHT22;16728;50.832;5.590;2024-01-07T18:52:52;1.40;99.90
29849;DHT22;16728;50.832;5.590;2024-01-07T18:55:54;1.40;99.90
29849;DHT22;16728;50.832;5.590;2024-01-07T18:58:58;1.40;99.90
29849;DHT22;16728;50.832;5.590;2024-01-07T19:02:08;1.50;99.90
29849;DHT22;16728;50.832;5.590;2024-01-07T19:05:32;1.50;99.90
29849;DHT22;16728;50.832;5.590;2024-01-07T19:08:37;1.60;99.90
29849;DHT22;16728;50.832;5.590;2024-01-07T19:11:42;1.60;99.90
29849;DHT22;16728;50.832;5.590;2024-01-07T19:14:44;1.60;99.90
29849;DHT22;16728;50.832;5.590;2024-01-07T19:17:47;1.60;99.90
29849;DHT22;16728;50.832;5.590;2024-01-07T19:20:56;1.60;99.90
29849;DHT22;16728;50.832;5.590;2024-01-07T19:23:59;1.60;99.90
29849;DHT22;16728;50.832;5.590;2024-01-07T19:27:10;1.60;99.90
29849;DHT22;16728;50.832;5.590;2024-01-07T19:30:12;1.60;99.90
29849;DHT22;16728;50.832;5.590;2024-01-07T19:33:14;1.60;99.90
29849;DHT22;16728;50.832;5.590;2024-01-07T19:36:29;1.60;99.90
29849;DHT22;16728;50.832;5.590;2024-01-07T19:39:34;1.60;99.90
29849;DHT22;16728;50.832;5.590;2024-01-07T19:42:38;1.50;99.90
29849;DHT22;16728;50.832;5.590;2024-01-07T19:45:40;1.60;99.90